createdAt,value
2022-12-15T06:30:29.747Z,53.08
2022-12-15T06:33:34.714Z,59.03
2022-12-15T06:36:38.087Z,54.08
2022-12-15T06:39:44.968Z,58.50
2022-12-15T06:43:01.212Z,58.87
2022-12-15T06:46:35.189Z,63.47
2022-12-15T06:50:02.142Z,62.45
2022-12-15T06:53:05.292Z,65.20
2022-12-15T06:56:16.586Z,58.35
2022-12-15T06:59:19.300Z,58.10
2022-12-15T07:02:31.437Z,65.45
2022-12-15T07:05:51.477Z,60.92
2022-12-15T07:09:21.218Z,59.00
2022-12-15T07:12:25.420Z,59.17
2022-12-15T07:15:28.213Z,63.17
2022-12-15T07:18:31.530Z,66.47
2022-12-15T07:21:34.133Z,62.15
2022-12-15T07:24:37.099Z,61.70
2022-12-15T07:31:30.087Z,62.47
2022-12-15T07:34:36.303Z,54.35
2022-12-15T07:37:56.263Z,58.58
2022-12-15T07:42:01.114Z,56.53
2022-12-15T07:45:16.986Z,57.30
2022-12-15T07:48:22.009Z,50.17
2022-12-15T07:51:24.328Z,48.83
2022-12-15T07:54:26.864Z,50.90
2022-12-15T07:57:29.382Z,60.38
2022-12-15T08:00:32.021Z,51.80
2022-12-15T08:03:35.659Z,52.25
2022-12-15T08:06:38.192Z,51.75
2022-12-15T08:09:40.723Z,51.92
2022-12-15T08:12:43.069Z,49.92
2022-12-15T08:15:46.289Z,51.03
2022-12-15T08:18:48.940Z,51.70
2022-12-15T08:21:52.055Z,50.45
2022-12-15T08:24:54.478Z,52.30
2022-12-15T08:27:57.433Z,56.63
2022-12-15T08:31:08.551Z,56.00
2022-12-15T08:34:11.120Z,49.53
2022-12-15T08:37:14.240Z,55.38
2022-12-15T08:40:16.858Z,53.05
2022-12-15T08:43:27.140Z,57.75
2022-12-15T08:49:35.333Z,49.95
2022-12-15T08:53:13.718Z,56.20
2022-12-15T08:56:18.578Z,51.65
2022-12-15T08:59:24.401Z,54.58
2022-12-15T09:02:27.397Z,48.75
2022-12-15T09:05:42.176Z,49.55
2022-12-15T09:08:48.476Z,52.15
2022-12-15T09:11:54.855Z,60.20
2022-12-15T09:14:58.666Z,64.30
2022-12-15T09:18:03.825Z,61.65
2022-12-15T09:21:18.124Z,55.95
2022-12-15T09:24:35.336Z,55.33
2022-12-15T09:27:55.597Z,58.90
2022-12-15T09:31:15.306Z,53.80
2022-12-15T09:34:28.951Z,60.78
2022-12-15T09:37:32.458Z,52.20
2022-12-15T09:40:34.663Z,52.25
2022-12-15T09:43:46.466Z,49.78
2022-12-15T09:47:15.973Z,59.65
2022-12-15T09:50:24.256Z,54.33
2022-12-15T09:53:53.655Z,54.70
2022-12-15T09:57:33.840Z,55.72
2022-12-15T10:00:55.596Z,53.75
2022-12-15T10:04:30.621Z,57.55
2022-12-15T10:07:50.471Z,54.60
2022-12-15T10:10:58.499Z,57.27
2022-12-15T10:14:27.117Z,59.28
2022-12-15T10:17:42.886Z,60.22
2022-12-15T10:20:45.532Z,56.60
2022-12-15T10:23:52.494Z,60.40
2022-12-15T10:27:24.004Z,60.97
2022-12-15T10:30:26.807Z,63.65
2022-12-15T10:33:36.985Z,58.22
2022-12-15T10:36:53.797Z,66.22
2022-12-15T10:39:56.497Z,64.87
2022-12-15T10:42:59.486Z,58.00
2022-12-15T10:46:14.786Z,57.67
2022-12-15T10:49:25.168Z,63.55
2022-12-15T10:52:34.598Z,63.70
2022-12-15T10:55:50.033Z,66.20
2022-12-15T10:58:55.498Z,63.97
2022-12-15T11:02:26.249Z,62.47
2022-12-15T11:05:28.666Z,67.95
2022-12-15T11:08:32.429Z,62.30
2022-12-15T11:11:54.886Z,65.62
2022-12-15T11:14:57.621Z,71.95
2022-12-15T11:18:13.309Z,65.12
2022-12-15T11:25:33.775Z,64.15
2022-12-15T11:28:52.854Z,63.40
2022-12-15T11:32:01.445Z,68.97
2022-12-15T11:35:19.136Z,66.80
2022-12-15T11:38:27.995Z,60.80
2022-12-15T11:41:42.653Z,65.85
2022-12-15T11:44:56.799Z,64.70
2022-12-15T11:48:10.137Z,67.90
2022-12-15T11:51:22.811Z,64.97
2022-12-15T11:54:28.379Z,67.53
2022-12-15T11:57:53.038Z,67.15
2022-12-15T12:01:33.038Z,68.95
2022-12-15T12:04:44.751Z,66.87
2022-12-15T12:07:53.529Z,64.37
2022-12-15T12:11:15.707Z,65.82
2022-12-15T12:14:39.399Z,68.68
2022-12-15T12:17:48.015Z,67.00
2022-12-15T12:20:56.633Z,69.93
2022-12-15T12:24:23.946Z,64.25
2022-12-15T12:27:48.764Z,65.62
2022-12-15T12:30:56.735Z,69.05
2022-12-15T12:34:08.476Z,70.25
2022-12-15T12:37:40.657Z,65.85
2022-12-15T12:41:10.373Z,65.57
2022-12-15T12:44:26.686Z,67.90
2022-12-15T12:47:37.700Z,67.68
2022-12-15T12:50:50.639Z,68.00
2022-12-15T12:53:54.617Z,68.40
2022-12-15T12:57:12.145Z,67.68
2022-12-15T13:00:19.648Z,63.65
2022-12-15T13:07:43.249Z,70.43
2022-12-15T13:22:12.906Z,69.37
2022-12-15T13:25:53.652Z,71.10
2022-12-15T13:30:04.540Z,69.93
2022-12-15T13:37:54.015Z,82.30
2022-12-15T13:45:21.410Z,78.55
2022-12-15T14:09:32.144Z,76.35
2022-12-15T14:13:16.348Z,74.85
2022-12-15T14:32:43.395Z,81.22
2022-12-15T14:35:57.083Z,77.87
2022-12-15T14:39:14.841Z,76.65
2022-12-15T14:42:34.183Z,83.43
2022-12-15T14:45:44.276Z,87.18
2022-12-15T14:49:33.800Z,92.25
2022-12-15T14:56:42.407Z,82.55
2022-12-15T14:59:46.536Z,96.30
2022-12-15T15:03:11.430Z,77.75
2022-12-15T15:03:30.334Z,91.25
2022-12-15T15:06:41.074Z,87.40
2022-12-15T15:09:48.799Z,86.37
2022-12-15T15:12:55.560Z,88.65
2022-12-15T15:16:14.645Z,84.62
2022-12-15T15:19:39.683Z,86.20
2022-12-15T15:22:46.547Z,84.70
2022-12-15T15:25:55.068Z,89.68
2022-12-15T15:28:58.902Z,81.65
2022-12-15T15:32:17.394Z,89.18
2022-12-15T15:35:23.975Z,92.45
2022-12-15T15:38:34.283Z,93.25
2022-12-15T15:41:42.897Z,89.87
2022-12-15T15:44:48.692Z,92.40
2022-12-15T15:48:03.015Z,85.15
2022-12-15T15:51:10.263Z,90.28
2022-12-15T15:54:18.582Z,88.07
2022-12-15T15:57:28.331Z,81.95
2022-12-15T16:00:34.230Z,89.00
2022-12-15T16:03:42.894Z,86.25
2022-12-15T16:06:47.832Z,77.90
2022-12-15T16:09:54.046Z,81.07
2022-12-15T16:13:01.737Z,78.90
2022-12-15T16:16:18.213Z,76.28
2022-12-15T16:23:18.249Z,74.45
2022-12-15T16:26:54.485Z,77.20
2022-12-15T16:30:00.095Z,77.25
2022-12-15T16:33:10.140Z,73.82
2022-12-15T16:36:26.285Z,68.90
2022-12-15T16:39:38.585Z,73.97
2022-12-15T16:42:56.364Z,70.40
2022-12-15T16:46:12.242Z,67.18
2022-12-15T16:53:04.740Z,56.22
2022-12-15T16:56:15.269Z,58.80
2022-12-15T17:10:46.561Z,48.97
2022-12-15T17:14:22.837Z,51.63
2022-12-15T17:17:38.451Z,47.90
2022-12-15T17:24:23.573Z,46.10
2022-12-15T17:27:38.116Z,43.63
2022-12-15T17:30:44.000Z,43.70
2022-12-15T17:33:57.931Z,44.63
2022-12-15T17:40:33.193Z,45.25
2022-12-15T17:43:42.765Z,47.83
2022-12-15T17:47:06.703Z,42.85
2022-12-15T17:50:14.726Z,49.05
2022-12-15T17:53:31.910Z,44.63
2022-12-15T17:56:41.241Z,49.88
2022-12-15T17:59:56.132Z,45.83
2022-12-15T18:03:19.518Z,47.67
2022-12-15T18:06:34.763Z,53.00
2022-12-15T18:09:51.205Z,50.30
2022-12-15T18:16:56.646Z,43.85
2022-12-15T18:20:23.274Z,45.67
2022-12-15T18:23:35.738Z,42.92
2022-12-15T18:26:47.891Z,42.38
2022-12-15T18:33:42.940Z,42.65
2022-12-15T18:37:02.921Z,46.37
2022-12-15T18:40:18.703Z,41.20
2022-12-15T18:43:27.706Z,43.10
2022-12-15T18:46:33.648Z,41.20
2022-12-15T18:49:39.553Z,42.70
2022-12-15T18:52:44.594Z,37.00
2022-12-15T18:55:49.214Z,38.47
2022-12-15T18:58:58.215Z,40.10
2022-12-15T19:02:07.602Z,37.60
2022-12-15T19:05:32.310Z,39.20
2022-12-15T19:08:39.275Z,33.03
2022-12-15T19:12:18.774Z,31.48
2022-12-15T19:15:30.184Z,33.58
2022-12-15T19:19:00.775Z,31.30
2022-12-15T19:22:35.056Z,29.05
2022-12-15T19:26:01.143Z,33.90
2022-12-15T19:29:31.559Z,31.33
2022-12-15T19:33:04.514Z,33.45
2022-12-15T19:40:14.300Z,36.55
2022-12-15T19:43:55.195Z,35.55
2022-12-15T20:13:39.335Z,34.78
2022-12-15T20:20:38.706Z,32.88
2022-12-15T20:40:40.705Z,37.17
2022-12-15T20:44:03.057Z,43.60
2022-12-15T20:52:33.128Z,38.83
2022-12-15T20:56:19.900Z,33.95
2022-12-15T20:59:27.985Z,35.55
2022-12-15T21:10:23.461Z,38.13
2022-12-15T21:22:44.070Z,31.92
2022-12-15T22:04:04.866Z,30.83
2022-12-15T23:03:30.312Z,30.67
2022-12-15T23:07:03.438Z,32.53
2022-12-15T23:10:39.959Z,32.78
2022-12-15T23:19:12.879Z,31.50
2022-12-15T23:25:40.149Z,30.00
2022-12-15T23:28:52.200Z,29.12
2022-12-15T23:32:00.757Z,26.48
2022-12-15T23:35:06.708Z,29.27
2022-12-15T23:38:17.699Z,29.65
2022-12-15T23:41:22.083Z,28.17
2022-12-15T23:44:25.721Z,25.20
2022-12-15T23:47:30.253Z,26.87
2022-12-15T23:50:37.407Z,25.85
2022-12-15T23:53:43.397Z,24.58
2022-12-15T23:56:47.260Z,23.40
2022-12-15T23:59:51.989Z,23.50
